sensor_id;sensor_type;location;lat;lon;timestamp;P1;P2;P0
31330;PMS5003;34067;39.548;-76.088;2024-02-23T00:01:12;23;23;
31330;PMS5003;34067;39.548;-76.088;2024-02-23T00:03:41;16;16;
31330;PMS5003;34067;39.548;-76.088;2024-02-23T00:06:09;21;21;
31330;PMS5003;34067;39.548;-76.088;2024-02-23T00:08:36;9;9;
31330;PMS5003;34067;39.548;-76.088;2024-02-23T00:11:04;12;11;
31330;PMS5003;34067;39.548;-76.088;2024-02-23T00:13:33;7;7;
31330;PMS5003;34067;39.548;-76.088;2024-02-23T00:16:01;6;6;
31330;PMS5003;34067;39.548;-76.088;2024-02-23T00:18:29;7;5;
31330;PMS5003;34067;39.548;-76.088;2024-02-23T00:20:56;6;6;
31330;PMS5003;34067;39.548;-76.088;2024-02-23T00:23:25;6;6;
31330;PMS5003;34067;39.548;-76.088;2024-02-23T00:25:53;11;7;
31330;PMS5003;34067;39.548;-76.088;2024-02-23T00:28:21;5;5;
31330;PMS5003;34067;39.548;-76.088;2024-02-23T00:30:50;5;5;
31330;PMS5003;34067;39.548;-76.088;2024-02-23T00:33:18;8;6;
31330;PMS5003;34067;39.548;-76.088;2024-02-23T00:35:46;9;6;
31330;PMS5003;34067;39.548;-76.088;2024-02-23T00:38:14;8;6;
31330;PMS5003;34067;39.548;-76.088;2024-02-23T00:40:42;7;7;
31330;PMS5003;34067;39.548;-76.088;2024-02-23T00:43:10;9;8;
31330;PMS5003;34067;39.548;-76.088;2024-02-23T00:45:38;8;7;
31330;PMS5003;34067;39.548;-76.088;2024-02-23T00:48:06;8;7;
31330;PMS5003;34067;39.548;-76.088;2024-02-23T00:50:34;9;7;
31330;PMS5003;34067;39.548;-76.088;2024-02-23T00:53:03;7;6;
31330;PMS5003;34067;39.548;-76.088;2024-02-23T00:55:31;7;6;
31330;PMS5003;34067;39.548;-76.088;2024-02-23T00:57:59;9;8;
31330;PMS5003;34067;39.548;-76.088;2024-02-23T01:00:27;7;7;
31330;PMS5003;34067;39.548;-76.088;2024-02-23T01:02:55;12;8;
31330;PMS5003;34067;39.548;-76.088;2024-02-23T01:05:24;6;5;
31330;PMS5003;34067;39.548;-76.088;2024-02-23T01:07:52;8;7;
31330;PMS5003;34067;39.548;-76.088;2024-02-23T01:10:19;6;6;
31330;PMS5003;34067;39.548;-76.088;2024-02-23T01:12:46;6;6;
31330;PMS5003;34067;39.548;-76.088;2024-02-23T01:15:15;6;6;
31330;PMS5003;34067;39.548;-76.088;2024-02-23T01:17:43;9;8;
31330;PMS5003;34067;39.548;-76.088;2024-02-23T01:20:11;8;7;
31330;PMS5003;34067;39.548;-76.088;2024-02-23T01:22:39;7;7;
31330;PMS5003;34067;39.548;-76.088;2024-02-23T01:25:07;11;11;
31330;PMS5003;34067;39.548;-76.088;2024-02-23T01:27:36;10;10;
31330;PMS5003;34067;39.548;-76.088;2024-02-23T01:30:04;7;6;
31330;PMS5003;34067;39.548;-76.088;2024-02-23T01:32:33;7;7;
31330;PMS5003;34067;39.548;-76.088;2024-02-23T01:35:01;9;9;
31330;PMS5003;34067;39.548;-76.088;2024-02-23T01:37:29;8;8;
31330;PMS5003;34067;39.548;-76.088;2024-02-23T01:39:58;6;6;
31330;PMS5003;34067;39.548;-76.088;2024-02-23T01:42:26;6;6;
31330;PMS5003;34067;39.548;-76.088;2024-02-23T01:44:54;7;7;
31330;PMS5003;34067;39.548;-76.088;2024-02-23T01:47:22;7;6;
31330;PMS5003;34067;39.548;-76.088;2024-02-23T01:49:51;8;7;
31330;PMS5003;34067;39.548;-76.088;2024-02-23T01:52:20;13;12;
31330;PMS5003;34067;39.548;-76.088;2024-02-23T01:54:48;9;7;
31330;PMS5003;34067;39.548;-76.088;2024-02-23T01:57:17;8;8;
31330;PMS5003;34067;39.548;-76.088;2024-02-23T01:59:45;7;7;
31330;PMS5003;34067;39.548;-76.088;2024-02-23T02:02:13;8;7;
31330;PMS5003;34067;39.548;-76.088;2024-02-23T02:04:42;8;8;
31330;PMS5003;34067;39.548;-76.088;2024-02-23T02:07:10;13;12;
31330;PMS5003;34067;39.548;-76.088;2024-02-23T02:09:38;21;20;
31330;PMS5003;34067;39.548;-76.088;2024-02-23T02:12:06;14;14;
31330;PMS5003;34067;39.548;-76.088;2024-02-23T02:14:34;17;17;
31330;PMS5003;34067;39.548;-76.088;2024-02-23T02:17:02;17;15;
31330;PMS5003;34067;39.548;-76.088;2024-02-23T02:19:30;15;15;
31330;PMS5003;34067;39.548;-76.088;2024-02-23T02:21:58;17;16;
31330;PMS5003;34067;39.548;-76.088;2024-02-23T02:24:26;16;14;
31330;PMS5003;34067;39.548;-76.088;2024-02-23T02:26:54;13;13;
31330;PMS5003;34067;39.548;-76.088;2024-02-23T02:29:25;15;12;
31330;PMS5003;34067;39.548;-76.088;2024-02-23T02:31:53;16;14;
31330;PMS5003;34067;39.548;-76.088;2024-02-23T02:34:20;14;14;
31330;PMS5003;34067;39.548;-76.088;2024-02-23T02:36:48;24;24;
31330;PMS5003;34067;39.548;-76.088;2024-02-23T02:39:16;12;10;
31330;PMS5003;34067;39.548;-76.088;2024-02-23T02:41:44;10;10;
31330;PMS5003;34067;39.548;-76.088;2024-02-23T02:44:12;12;11;
31330;PMS5003;34067;39.548;-76.088;2024-02-23T02:46:40;7;7;
31330;PMS5003;34067;39.548;-76.088;2024-02-23T02:49:09;8;7;
31330;PMS5003;34067;39.548;-76.088;2024-02-23T02:51:37;15;13;
31330;PMS5003;34067;39.548;-76.088;2024-02-23T02:54:10;12;11;
31330;PMS5003;34067;39.548;-76.088;2024-02-23T02:56:42;11;9;
31330;PMS5003;34067;39.548;-76.088;2024-02-23T02:59:10;11;10;
31330;PMS5003;34067;39.548;-76.088;2024-02-23T03:01:38;11;8;
31330;PMS5003;34067;39.548;-76.088;2024-02-23T03:04:07;13;12;
31330;PMS5003;34067;39.548;-76.088;2024-02-23T03:06:36;8;8;
31330;PMS5003;34067;39.548;-76.088;2024-02-23T03:09:04;14;13;
31330;PMS5003;34067;39.548;-76.088;2024-02-23T03:11:32;12;12;
31330;PMS5003;34067;39.548;-76.088;2024-02-23T03:14:00;11;9;
31330;PMS5003;34067;39.548;-76.088;2024-02-23T03:16:28;11;11;
31330;PMS5003;34067;39.548;-76.088;2024-02-23T03:18:56;12;11;
31330;PMS5003;34067;39.548;-76.088;2024-02-23T03:21:24;13;12;
31330;PMS5003;34067;39.548;-76.088;2024-02-23T03:23:53;13;11;
31330;PMS5003;34067;39.548;-76.088;2024-02-23T03:26:21;11;11;
31330;PMS5003;34067;39.548;-76.088;2024-02-23T03:28:49;10;10;
31330;PMS5003;34067;39.548;-76.088;2024-02-23T03:31:18;13;13;
31330;PMS5003;34067;39.548;-76.088;2024-02-23T03:33:46;14;13;
31330;PMS5003;34067;39.548;-76.088;2024-02-23T03:36:13;10;10;
31330;PMS5003;34067;39.548;-76.088;2024-02-23T03:38:42;11;11;
31330;PMS5003;34067;39.548;-76.088;2024-02-23T03:41:10;11;11;
31330;PMS5003;34067;39.548;-76.088;2024-02-23T03:43:38;11;8;
31330;PMS5003;34067;39.548;-76.088;2024-02-23T03:46:06;12;10;
31330;PMS5003;34067;39.548;-76.088;2024-02-23T03:48:34;15;13;
31330;PMS5003;34067;39.548;-76.088;2024-02-23T03:51:03;13;12;
31330;PMS5003;34067;39.548;-76.088;2024-02-23T03:53:31;14;14;
31330;PMS5003;34067;39.548;-76.088;2024-02-23T03:55:58;20;18;
31330;PMS5003;34067;39.548;-76.088;2024-02-23T03:58:27;20;18;
31330;PMS5003;34067;39.548;-76.088;2024-02-23T04:00:55;29;26;
31330;PMS5003;34067;39.548;-76.088;2024-02-23T04:03:23;12;11;
31330;PMS5003;34067;39.548;-76.088;2024-02-23T04:05:51;16;15;
31330;PMS5003;34067;39.548;-76.088;2024-02-23T04:08:19;16;16;
31330;PMS5003;34067;39.548;-76.088;2024-02-23T04:10:46;24;24;
31330;PMS5003;34067;39.548;-76.088;2024-02-23T04:13:14;32;32;
31330;PMS5003;34067;39.548;-76.088;2024-02-23T04:15:42;17;17;
31330;PMS5003;34067;39.548;-76.088;2024-02-23T04:18:10;13;12;
31330;PMS5003;34067;39.548;-76.088;2024-02-23T04:20:38;17;17;
31330;PMS5003;34067;39.548;-76.088;2024-02-23T04:23:06;10;8;
31330;PMS5003;34067;39.548;-76.088;2024-02-23T04:25:34;14;13;
31330;PMS5003;34067;39.548;-76.088;2024-02-23T04:28:02;11;10;
31330;PMS5003;34067;39.548;-76.088;2024-02-23T04:30:30;87;85;
31330;PMS5003;34067;39.548;-76.088;2024-02-23T04:32:58;36;34;
31330;PMS5003;34067;39.548;-76.088;2024-02-23T04:35:26;13;13;
31330;PMS5003;34067;39.548;-76.088;2024-02-23T04:37:54;32;32;
31330;PMS5003;34067;39.548;-76.088;2024-02-23T04:40:22;13;12;
31330;PMS5003;34067;39.548;-76.088;2024-02-23T04:42:49;13;12;
31330;PMS5003;34067;39.548;-76.088;2024-02-23T04:45:17;14;13;
31330;PMS5003;34067;39.548;-76.088;2024-02-23T04:47:45;12;12;
31330;PMS5003;34067;39.548;-76.088;2024-02-23T04:50:13;17;15;
31330;PMS5003;34067;39.548;-76.088;2024-02-23T04:52:41;34;34;
31330;PMS5003;34067;39.548;-76.088;2024-02-23T04:55:10;20;17;
31330;PMS5003;34067;39.548;-76.088;2024-02-23T04:57:38;65;64;
31330;PMS5003;34067;39.548;-76.088;2024-02-23T05:00:07;15;15;
31330;PMS5003;34067;39.548;-76.088;2024-02-23T05:02:35;132;130;
31330;PMS5003;34067;39.548;-76.088;2024-02-23T05:05:03;14;13;
31330;PMS5003;34067;39.548;-76.088;2024-02-23T05:07:32;19;17;
31330;PMS5003;34067;39.548;-76.088;2024-02-23T05:10:00;15;15;
31330;PMS5003;34067;39.548;-76.088;2024-02-23T05:12:28;28;25;
31330;PMS5003;34067;39.548;-76.088;2024-02-23T05:14:56;17;14;
31330;PMS5003;34067;39.548;-76.088;2024-02-23T05:17:24;17;16;
31330;PMS5003;34067;39.548;-76.088;2024-02-23T05:19:51;35;35;
31330;PMS5003;34067;39.548;-76.088;2024-02-23T05:22:19;42;41;
31330;PMS5003;34067;39.548;-76.088;2024-02-23T05:24:47;14;14;
31330;PMS5003;34067;39.548;-76.088;2024-02-23T05:27:15;16;12;
31330;PMS5003;34067;39.548;-76.088;2024-02-23T05:29:43;19;15;
31330;PMS5003;34067;39.548;-76.088;2024-02-23T05:32:11;17;17;
31330;PMS5003;34067;39.548;-76.088;2024-02-23T05:34:39;33;30;
31330;PMS5003;34067;39.548;-76.088;2024-02-23T05:37:07;25;22;
31330;PMS5003;34067;39.548;-76.088;2024-02-23T05:39:35;36;34;
31330;PMS5003;34067;39.548;-76.088;2024-02-23T05:42:03;14;14;
31330;PMS5003;34067;39.548;-76.088;2024-02-23T05:44:31;28;26;
31330;PMS5003;34067;39.548;-76.088;2024-02-23T05:46:59;16;15;
31330;PMS5003;34067;39.548;-76.088;2024-02-23T05:49:27;28;28;
31330;PMS5003;34067;39.548;-76.088;2024-02-23T05:51:55;23;22;
31330;PMS5003;34067;39.548;-76.088;2024-02-23T05:54:23;15;15;
31330;PMS5003;34067;39.548;-76.088;2024-02-23T05:56:52;30;30;
31330;PMS5003;34067;39.548;-76.088;2024-02-23T05:59:19;15;15;
31330;PMS5003;34067;39.548;-76.088;2024-02-23T06:03:15;19;18;
31330;PMS5003;34067;39.548;-76.088;2024-02-23T06:05:43;34;34;
31330;PMS5003;34067;39.548;-76.088;2024-02-23T06:08:10;16;14;
31330;PMS5003;34067;39.548;-76.088;2024-02-23T06:10:38;21;19;
31330;PMS5003;34067;39.548;-76.088;2024-02-23T06:13:06;33;32;
31330;PMS5003;34067;39.548;-76.088;2024-02-23T06:15:34;16;16;
31330;PMS5003;34067;39.548;-76.088;2024-02-23T06:18:02;33;27;
31330;PMS5003;34067;39.548;-76.088;2024-02-23T06:20:30;23;22;
31330;PMS5003;34067;39.548;-76.088;2024-02-23T06:22:58;19;18;
31330;PMS5003;34067;39.548;-76.088;2024-02-23T06:25:27;28;27;
31330;PMS5003;34067;39.548;-76.088;2024-02-23T06:27:55;35;34;
31330;PMS5003;34067;39.548;-76.088;2024-02-23T06:30:23;29;24;
31330;PMS5003;34067;39.548;-76.088;2024-02-23T06:32:51;31;29;
31330;PMS5003;34067;39.548;-76.088;2024-02-23T06:35:19;22;22;
31330;PMS5003;34067;39.548;-76.088;2024-02-23T06:37:48;24;22;
31330;PMS5003;34067;39.548;-76.088;2024-02-23T06:40:15;30;25;
31330;PMS5003;34067;39.548;-76.088;2024-02-23T06:42:44;29;28;
31330;PMS5003;34067;39.548;-76.088;2024-02-23T06:45:12;30;29;
31330;PMS5003;34067;39.548;-76.088;2024-02-23T06:47:39;33;32;
31330;PMS5003;34067;39.548;-76.088;2024-02-23T06:50:07;30;28;
31330;PMS5003;34067;39.548;-76.088;2024-02-23T06:52:35;31;24;
31330;PMS5003;34067;39.548;-76.088;2024-02-23T06:55:04;30;28;
31330;PMS5003;34067;39.548;-76.088;2024-02-23T06:57:33;32;30;
31330;PMS5003;34067;39.548;-76.088;2024-02-23T07:00:00;33;32;
31330;PMS5003;34067;39.548;-76.088;2024-02-23T07:02:29;26;23;
31330;PMS5003;34067;39.548;-76.088;2024-02-23T07:04:57;41;37;
31330;PMS5003;34067;39.548;-76.088;2024-02-23T07:07:25;30;30;
31330;PMS5003;34067;39.548;-76.088;2024-02-23T07:09:52;25;24;
31330;PMS5003;34067;39.548;-76.088;2024-02-23T07:12:20;26;23;
31330;PMS5003;34067;39.548;-76.088;2024-02-23T07:14:48;24;24;
31330;PMS5003;34067;39.548;-76.088;2024-02-23T07:17:17;34;33;
31330;PMS5003;34067;39.548;-76.088;2024-02-23T07:19:44;29;26;
31330;PMS5003;34067;39.548;-76.088;2024-02-23T07:22:13;26;26;
31330;PMS5003;34067;39.548;-76.088;2024-02-23T07:24:41;29;26;
31330;PMS5003;34067;39.548;-76.088;2024-02-23T07:27:09;26;25;
31330;PMS5003;34067;39.548;-76.088;2024-02-23T07:29:38;33;31;
31330;PMS5003;34067;39.548;-76.088;2024-02-23T07:32:06;26;24;
31330;PMS5003;34067;39.548;-76.088;2024-02-23T07:34:33;27;24;
31330;PMS5003;34067;39.548;-76.088;2024-02-23T07:37:02;36;28;
31330;PMS5003;34067;39.548;-76.088;2024-02-23T07:39:30;34;33;
31330;PMS5003;34067;39.548;-76.088;2024-02-23T07:41:57;34;34;
31330;PMS5003;34067;39.548;-76.088;2024-02-23T07:44:25;46;43;
31330;PMS5003;34067;39.548;-76.088;2024-02-23T07:46:53;39;38;
31330;PMS5003;34067;39.548;-76.088;2024-02-23T07:49:20;38;34;
31330;PMS5003;34067;39.548;-76.088;2024-02-23T07:51:48;51;49;
31330;PMS5003;34067;39.548;-76.088;2024-02-23T07:54:16;43;42;
31330;PMS5003;34067;39.548;-76.088;2024-02-23T07:56:43;39;37;
31330;PMS5003;34067;39.548;-76.088;2024-02-23T07:59:11;43;40;
31330;PMS5003;34067;39.548;-76.088;2024-02-23T08:01:40;52;49;
31330;PMS5003;34067;39.548;-76.088;2024-02-23T08:04:07;45;43;
31330;PMS5003;34067;39.548;-76.088;2024-02-23T08:06:35;46;44;
31330;PMS5003;34067;39.548;-76.088;2024-02-23T08:09:03;50;48;
31330;PMS5003;34067;39.548;-76.088;2024-02-23T08:11:30;48;45;
31330;PMS5003;34067;39.548;-76.088;2024-02-23T08:13:58;70;68;
31330;PMS5003;34067;39.548;-76.088;2024-02-23T08:16:25;167;166;
31330;PMS5003;34067;39.548;-76.088;2024-02-23T08:18:53;171;171;
31330;PMS5003;34067;39.548;-76.088;2024-02-23T08:21:21;186;185;
31330;PMS5003;34067;39.548;-76.088;2024-02-23T08:23:49;214;210;
31330;PMS5003;34067;39.548;-76.088;2024-02-23T08:26:16;197;196;
31330;PMS5003;34067;39.548;-76.088;2024-02-23T08:28:44;156;151;
31330;PMS5003;34067;39.548;-76.088;2024-02-23T08:31:11;186;185;
31330;PMS5003;34067;39.548;-76.088;2024-02-23T08:33:39;145;141;
31330;PMS5003;34067;39.548;-76.088;2024-02-23T08:36:07;221;219;
31330;PMS5003;34067;39.548;-76.088;2024-02-23T08:38:35;53;50;
31330;PMS5003;34067;39.548;-76.088;2024-02-23T08:41:03;56;54;
31330;PMS5003;34067;39.548;-76.088;2024-02-23T08:43:31;58;55;
31330;PMS5003;34067;39.548;-76.088;2024-02-23T08:45:59;49;47;
31330;PMS5003;34067;39.548;-76.088;2024-02-23T08:48:27;63;60;
31330;PMS5003;34067;39.548;-76.088;2024-02-23T08:50:55;46;41;
31330;PMS5003;34067;39.548;-76.088;2024-02-23T08:53:23;47;43;
31330;PMS5003;34067;39.548;-76.088;2024-02-23T08:55:51;59;58;
31330;PMS5003;34067;39.548;-76.088;2024-02-23T08:58:19;40;38;
31330;PMS5003;34067;39.548;-76.088;2024-02-23T09:00:47;50;47;
31330;PMS5003;34067;39.548;-76.088;2024-02-23T09:03:15;48;45;
31330;PMS5003;34067;39.548;-76.088;2024-02-23T09:05:43;58;54;
31330;PMS5003;34067;39.548;-76.088;2024-02-23T09:08:11;40;39;
31330;PMS5003;34067;39.548;-76.088;2024-02-23T09:10:39;54;49;
31330;PMS5003;34067;39.548;-76.088;2024-02-23T09:13:06;41;37;
31330;PMS5003;34067;39.548;-76.088;2024-02-23T09:15:35;59;57;
31330;PMS5003;34067;39.548;-76.088;2024-02-23T09:18:03;38;34;
31330;PMS5003;34067;39.548;-76.088;2024-02-23T09:20:31;57;56;
31330;PMS5003;34067;39.548;-76.088;2024-02-23T09:22:59;51;48;
31330;PMS5003;34067;39.548;-76.088;2024-02-23T09:25:27;62;60;
31330;PMS5003;34067;39.548;-76.088;2024-02-23T09:27:56;54;52;
31330;PMS5003;34067;39.548;-76.088;2024-02-23T09:30:24;31;30;
31330;PMS5003;34067;39.548;-76.088;2024-02-23T09:32:52;33;32;
31330;PMS5003;34067;39.548;-76.088;2024-02-23T09:35:20;63;58;
31330;PMS5003;34067;39.548;-76.088;2024-02-23T09:37:48;38;34;
31330;PMS5003;34067;39.548;-76.088;2024-02-23T09:40:17;70;69;
31330;PMS5003;34067;39.548;-76.088;2024-02-23T09:42:46;63;62;
31330;PMS5003;34067;39.548;-76.088;2024-02-23T09:45:19;32;30;
31330;PMS5003;34067;39.548;-76.088;2024-02-23T09:47:47;35;30;
31330;PMS5003;34067;39.548;-76.088;2024-02-23T09:50:16;36;32;
31330;PMS5003;34067;39.548;-76.088;2024-02-23T09:52:44;60;58;
31330;PMS5003;34067;39.548;-76.088;2024-02-23T09:55:14;43;39;
31330;PMS5003;34067;39.548;-76.088;2024-02-23T09:57:41;58;57;
31330;PMS5003;34067;39.548;-76.088;2024-02-23T10:00:10;107;106;
31330;PMS5003;34067;39.548;-76.088;2024-02-23T10:02:39;41;39;
31330;PMS5003;34067;39.548;-76.088;2024-02-23T10:05:08;55;51;
31330;PMS5003;34067;39.548;-76.088;2024-02-23T10:07:38;65;64;
31330;PMS5003;34067;39.548;-76.088;2024-02-23T10:10:06;81;72;
31330;PMS5003;34067;39.548;-76.088;2024-02-23T10:12:34;42;38;
31330;PMS5003;34067;39.548;-76.088;2024-02-23T10:15:02;41;39;
31330;PMS5003;34067;39.548;-76.088;2024-02-23T10:17:30;73;69;
31330;PMS5003;34067;39.548;-76.088;2024-02-23T10:19:59;71;67;
31330;PMS5003;34067;39.548;-76.088;2024-02-23T10:22:27;73;68;
31330;PMS5003;34067;39.548;-76.088;2024-02-23T10:24:58;63;60;
31330;PMS5003;34067;39.548;-76.088;2024-02-23T10:27:26;86;76;
31330;PMS5003;34067;39.548;-76.088;2024-02-23T10:29:54;79;74;
31330;PMS5003;34067;39.548;-76.088;2024-02-23T10:32:22;111;104;
31330;PMS5003;34067;39.548;-76.088;2024-02-23T10:34:52;146;140;
31330;PMS5003;34067;39.548;-76.088;2024-02-23T10:37:22;148;144;
31330;PMS5003;34067;39.548;-76.088;2024-02-23T10:39:51;108;106;
31330;PMS5003;34067;39.548;-76.088;2024-02-23T10:42:24;126;123;
31330;PMS5003;34067;39.548;-76.088;2024-02-23T10:44:57;123;120;
31330;PMS5003;34067;39.548;-76.088;2024-02-23T10:47:25;130;127;
31330;PMS5003;34067;39.548;-76.088;2024-02-23T10:49:55;156;151;
31330;PMS5003;34067;39.548;-76.088;2024-02-23T10:52:27;133;126;
31330;PMS5003;34067;39.548;-76.088;2024-02-23T10:54:55;128;122;
31330;PMS5003;34067;39.548;-76.088;2024-02-23T10:57:24;134;130;
31330;PMS5003;34067;39.548;-76.088;2024-02-23T10:59:52;120;117;
31330;PMS5003;34067;39.548;-76.088;2024-02-23T11:02:20;163;159;
31330;PMS5003;34067;39.548;-76.088;2024-02-23T11:04:51;136;135;
31330;PMS5003;34067;39.548;-76.088;2024-02-23T11:07:22;125;123;
31330;PMS5003;34067;39.548;-76.088;2024-02-23T11:09:51;118;113;
31330;PMS5003;34067;39.548;-76.088;2024-02-23T11:12:23;134;132;
31330;PMS5003;34067;39.548;-76.088;2024-02-23T11:14:51;139;135;
31330;PMS5003;34067;39.548;-76.088;2024-02-23T11:17:25;156;152;
31330;PMS5003;34067;39.548;-76.088;2024-02-23T11:19:54;145;142;
31330;PMS5003;34067;39.548;-76.088;2024-02-23T11:22:24;113;111;
31330;PMS5003;34067;39.548;-76.088;2024-02-23T11:24:53;157;152;
31330;PMS5003;34067;39.548;-76.088;2024-02-23T11:27:29;113;108;
31330;PMS5003;34067;39.548;-76.088;2024-02-23T11:29:59;132;130;
31330;PMS5003;34067;39.548;-76.088;2024-02-23T11:32:36;143;142;
31330;PMS5003;34067;39.548;-76.088;2024-02-23T11:35:06;135;133;
31330;PMS5003;34067;39.548;-76.088;2024-02-23T11:37:44;99;97;
31330;PMS5003;34067;39.548;-76.088;2024-02-23T11:40:14;75;74;
31330;PMS5003;34067;39.548;-76.088;2024-02-23T11:42:44;99;91;
31330;PMS5003;34067;39.548;-76.088;2024-02-23T11:45:13;94;92;
31330;PMS5003;34067;39.548;-76.088;2024-02-23T11:47:41;98;96;
31330;PMS5003;34067;39.548;-76.088;2024-02-23T11:50:09;119;118;
31330;PMS5003;34067;39.548;-76.088;2024-02-23T11:52:38;81;77;
31330;PMS5003;34067;39.548;-76.088;2024-02-23T11:55:06;70;67;
31330;PMS5003;34067;39.548;-76.088;2024-02-23T11:57:34;66;62;
31330;PMS5003;34067;39.548;-76.088;2024-02-23T12:00:02;78;77;
31330;PMS5003;34067;39.548;-76.088;2024-02-23T12:02:31;97;92;
31330;PMS5003;34067;39.548;-76.088;2024-02-23T12:04:59;116;110;
31330;PMS5003;34067;39.548;-76.088;2024-02-23T12:07:28;110;104;
31330;PMS5003;34067;39.548;-76.088;2024-02-23T12:09:57;101;99;
31330;PMS5003;34067;39.548;-76.088;2024-02-23T12:12:25;81;80;
31330;PMS5003;34067;39.548;-76.088;2024-02-23T12:14:53;66;61;
31330;PMS5003;34067;39.548;-76.088;2024-02-23T12:17:20;65;63;
31330;PMS5003;34067;39.548;-76.088;2024-02-23T12:19:48;63;60;
31330;PMS5003;34067;39.548;-76.088;2024-02-23T12:22:16;71;70;
31330;PMS5003;34067;39.548;-76.088;2024-02-23T12:24:44;59;52;
31330;PMS5003;34067;39.548;-76.088;2024-02-23T12:27:16;51;50;
31330;PMS5003;34067;39.548;-76.088;2024-02-23T12:29:50;61;59;
31330;PMS5003;34067;39.548;-76.088;2024-02-23T12:32:20;55;53;
31330;PMS5003;34067;39.548;-76.088;2024-02-23T12:34:48;39;33;
31330;PMS5003;34067;39.548;-76.088;2024-02-23T12:37:16;49;43;
31330;PMS5003;34067;39.548;-76.088;2024-02-23T12:39:44;44;40;
31330;PMS5003;34067;39.548;-76.088;2024-02-23T12:42:13;37;37;
31330;PMS5003;34067;39.548;-76.088;2024-02-23T12:44:41;43;42;
31330;PMS5003;34067;39.548;-76.088;2024-02-23T12:47:10;39;37;
31330;PMS5003;34067;39.548;-76.088;2024-02-23T12:49:38;40;38;
31330;PMS5003;34067;39.548;-76.088;2024-02-23T12:52:05;39;33;
31330;PMS5003;34067;39.548;-76.088;2024-02-23T12:54:33;40;38;
31330;PMS5003;34067;39.548;-76.088;2024-02-23T12:57:01;45;41;
31330;PMS5003;34067;39.548;-76.088;2024-02-23T12:59:30;44;40;
31330;PMS5003;34067;39.548;-76.088;2024-02-23T13:01:57;50;46;
31330;PMS5003;34067;39.548;-76.088;2024-02-23T13:04:25;41;36;
31330;PMS5003;34067;39.548;-76.088;2024-02-23T13:06:53;39;36;
31330;PMS5003;34067;39.548;-76.088;2024-02-23T13:09:21;50;46;
31330;PMS5003;34067;39.548;-76.088;2024-02-23T13:11:49;53;49;
31330;PMS5003;34067;39.548;-76.088;2024-02-23T13:14:17;39;38;
31330;PMS5003;34067;39.548;-76.088;2024-02-23T13:16:45;42;40;
31330;PMS5003;34067;39.548;-76.088;2024-02-23T13:19:13;44;41;
31330;PMS5003;34067;39.548;-76.088;2024-02-23T13:21:41;46;39;
31330;PMS5003;34067;39.548;-76.088;2024-02-23T13:24:09;42;41;
31330;PMS5003;34067;39.548;-76.088;2024-02-23T13:26:37;43;40;
31330;PMS5003;34067;39.548;-76.088;2024-02-23T13:29:06;44;41;
31330;PMS5003;34067;39.548;-76.088;2024-02-23T13:31:34;43;40;
31330;PMS5003;34067;39.548;-76.088;2024-02-23T13:34:02;47;39;
31330;PMS5003;34067;39.548;-76.088;2024-02-23T13:36:30;45;42;
31330;PMS5003;34067;39.548;-76.088;2024-02-23T13:38:59;53;51;
31330;PMS5003;34067;39.548;-76.088;2024-02-23T13:41:27;51;44;
31330;PMS5003;34067;39.548;-76.088;2024-02-23T13:43:55;49;41;
31330;PMS5003;34067;39.548;-76.088;2024-02-23T13:46:23;45;41;
31330;PMS5003;34067;39.548;-76.088;2024-02-23T13:49:01;39;39;
31330;PMS5003;34067;39.548;-76.088;2024-02-23T13:51:30;49;43;
31330;PMS5003;34067;39.548;-76.088;2024-02-23T13:53:59;59;58;
31330;PMS5003;34067;39.548;-76.088;2024-02-23T13:56:27;56;53;
31330;PMS5003;34067;39.548;-76.088;2024-02-23T13:58:55;43;41;
31330;PMS5003;34067;39.548;-76.088;2024-02-23T14:01:23;45;43;
31330;PMS5003;34067;39.548;-76.088;2024-02-23T14:03:51;45;38;
31330;PMS5003;34067;39.548;-76.088;2024-02-23T14:06:18;50;44;
31330;PMS5003;34067;39.548;-76.088;2024-02-23T14:08:46;36;34;
31330;PMS5003;34067;39.548;-76.088;2024-02-23T14:11:15;79;77;
31330;PMS5003;34067;39.548;-76.088;2024-02-23T14:13:43;43;38;
31330;PMS5003;34067;39.548;-76.088;2024-02-23T14:16:11;44;41;
31330;PMS5003;34067;39.548;-76.088;2024-02-23T14:18:39;39;34;
31330;PMS5003;34067;39.548;-76.088;2024-02-23T14:21:07;41;39;
31330;PMS5003;34067;39.548;-76.088;2024-02-23T14:23:35;41;39;
31330;PMS5003;34067;39.548;-76.088;2024-02-23T14:26:03;45;37;
31330;PMS5003;34067;39.548;-76.088;2024-02-23T14:28:31;40;37;
31330;PMS5003;34067;39.548;-76.088;2024-02-23T14:30:59;44;39;
31330;PMS5003;34067;39.548;-76.088;2024-02-23T14:33:28;37;37;
31330;PMS5003;34067;39.548;-76.088;2024-02-23T14:35:55;47;40;
31330;PMS5003;34067;39.548;-76.088;2024-02-23T14:38:23;40;38;
31330;PMS5003;34067;39.548;-76.088;2024-02-23T14:40:51;51;41;
31330;PMS5003;34067;39.548;-76.088;2024-02-23T14:43:19;42;36;
31330;PMS5003;34067;39.548;-76.088;2024-02-23T14:45:47;41;38;
31330;PMS5003;34067;39.548;-76.088;2024-02-23T14:48:15;43;40;
31330;PMS5003;34067;39.548;-76.088;2024-02-23T14:50:43;39;36;
31330;PMS5003;34067;39.548;-76.088;2024-02-23T14:53:11;42;40;
31330;PMS5003;34067;39.548;-76.088;2024-02-23T14:55:39;40;37;
31330;PMS5003;34067;39.548;-76.088;2024-02-23T14:58:06;41;37;
31330;PMS5003;34067;39.548;-76.088;2024-02-23T15:00:34;43;41;
31330;PMS5003;34067;39.548;-76.088;2024-02-23T15:03:03;44;41;
31330;PMS5003;34067;39.548;-76.088;2024-02-23T15:05:31;38;34;
31330;PMS5003;34067;39.548;-76.088;2024-02-23T15:07:59;43;38;
31330;PMS5003;34067;39.548;-76.088;2024-02-23T15:10:27;43;40;
31330;PMS5003;34067;39.548;-76.088;2024-02-23T15:12:54;38;34;
31330;PMS5003;34067;39.548;-76.088;2024-02-23T15:15:23;47;41;
31330;PMS5003;34067;39.548;-76.088;2024-02-23T15:17:51;41;37;
31330;PMS5003;34067;39.548;-76.088;2024-02-23T15:20:19;51;45;
31330;PMS5003;34067;39.548;-76.088;2024-02-23T15:22:46;46;40;
31330;PMS5003;34067;39.548;-76.088;2024-02-23T15:25:15;52;47;
31330;PMS5003;34067;39.548;-76.088;2024-02-23T15:27:43;52;48;
31330;PMS5003;34067;39.548;-76.088;2024-02-23T15:30:10;45;43;
31330;PMS5003;34067;39.548;-76.088;2024-02-23T15:32:38;54;46;
31330;PMS5003;34067;39.548;-76.088;2024-02-23T15:35:06;53;49;
31330;PMS5003;34067;39.548;-76.088;2024-02-23T15:37:34;53;47;
31330;PMS5003;34067;39.548;-76.088;2024-02-23T15:40:03;54;47;
31330;PMS5003;34067;39.548;-76.088;2024-02-23T15:42:32;54;49;
31330;PMS5003;34067;39.548;-76.088;2024-02-23T15:45:00;47;45;
31330;PMS5003;34067;39.548;-76.088;2024-02-23T15:47:29;52;45;
31330;PMS5003;34067;39.548;-76.088;2024-02-23T15:49:57;53;49;
31330;PMS5003;34067;39.548;-76.088;2024-02-23T15:52:25;47;46;
31330;PMS5003;34067;39.548;-76.088;2024-02-23T15:54:53;54;51;